createdAt,value
2018-05-23T00:00:10.807Z,3.6
2018-05-23T00:01:12.429Z,2.9
2018-05-23T00:02:14.044Z,2.6
2018-05-23T00:03:15.659Z,2.6
2018-05-23T00:04:17.277Z,2.5
2018-05-23T00:05:18.889Z,3.3
2018-05-23T00:06:20.509Z,2.4
2018-05-23T00:07:22.121Z,2.5
2018-05-23T00:08:23.744Z,2.7
2018-05-23T00:09:25.360Z,2.6
2018-05-23T00:10:26.981Z,2.4
2018-05-23T00:11:28.593Z,2.6
2018-05-23T00:12:30.203Z,2.4
2018-05-23T00:13:31.824Z,2.5
2018-05-23T00:14:33.442Z,2.7
2018-05-23T00:15:35.055Z,2.4
2018-05-23T00:16:36.677Z,2.1
2018-05-23T00:17:38.289Z,2.9
2018-05-23T00:18:39.903Z,2.5
2018-05-23T00:19:41.521Z,2.2
2018-05-23T00:20:43.138Z,2.9
2018-05-23T00:21:44.759Z,3.1
2018-05-23T00:22:46.374Z,2.5
2018-05-23T00:23:47.996Z,2.7
2018-05-23T00:24:49.608Z,2.6
2018-05-23T00:25:51.229Z,2.6
2018-05-23T00:26:52.839Z,2.4
2018-05-23T00:27:54.455Z,2.8
2018-05-23T00:28:56.081Z,3.2
2018-05-23T00:29:57.694Z,2.9
2018-05-23T00:30:59.314Z,2.3
2018-05-23T00:32:00.925Z,2.8
2018-05-23T00:33:02.541Z,2.8
2018-05-23T00:34:04.162Z,2.7
2018-05-23T00:35:05.775Z,2.7
2018-05-23T00:36:07.391Z,2.8
2018-05-23T00:37:09.014Z,2.4
2018-05-23T00:38:10.636Z,2.9
2018-05-23T00:39:12.245Z,4.0
2018-05-23T00:40:13.863Z,3.5
2018-05-23T00:41:15.475Z,4.1
2018-05-23T00:42:17.096Z,3.5
2018-05-23T00:43:18.711Z,2.9
2018-05-23T00:44:20.332Z,2.8
2018-05-23T00:45:21.952Z,3.5
2018-05-23T00:46:23.565Z,2.8
2018-05-23T00:47:25.183Z,2.8
2018-05-23T00:48:26.801Z,3.5
2018-05-23T00:49:28.421Z,3.6
2018-05-23T00:50:30.042Z,3.5
2018-05-23T00:51:31.658Z,3.9
2018-05-23T00:52:33.278Z,3.5
2018-05-23T00:53:34.896Z,3.7
2018-05-23T00:54:36.510Z,3.4
2018-05-23T00:55:38.124Z,3.4
2018-05-23T00:56:39.739Z,4.0
2018-05-23T00:57:41.359Z,4.4
2018-05-23T00:58:42.979Z,4.0
2018-05-23T00:59:44.593Z,4.7
2018-05-23T01:00:46.208Z,4.3
2018-05-23T01:01:47.820Z,3.2
2018-05-23T01:02:49.434Z,4.3
2018-05-23T01:03:51.051Z,4.6
2018-05-23T01:04:52.667Z,3.8
2018-05-23T01:05:54.285Z,3.6
2018-05-23T01:06:55.905Z,4.4
2018-05-23T01:07:57.518Z,3.5
2018-05-23T01:08:59.135Z,3.6
2018-05-23T01:10:00.750Z,4.0
2018-05-23T01:11:02.362Z,3.5
2018-05-23T01:12:03.989Z,3.5
2018-05-23T01:13:05.602Z,3.8
2018-05-23T01:14:07.219Z,5.4
2018-05-23T01:15:08.835Z,4.0
2018-05-23T01:16:10.450Z,4.5
2018-05-23T01:17:12.066Z,3.3
2018-05-23T01:18:13.689Z,4.3
2018-05-23T01:19:15.303Z,3.5
2018-05-23T01:20:16.920Z,4.7
2018-05-23T01:21:18.535Z,4.3
2018-05-23T01:22:20.150Z,4.2
2018-05-23T01:23:21.764Z,4.5
2018-05-23T01:24:23.381Z,3.5
2018-05-23T01:25:25.001Z,4.2
2018-05-23T01:26:26.613Z,4.0
2018-05-23T01:27:28.233Z,3.9
2018-05-23T01:28:29.849Z,4.3
2018-05-23T01:29:31.461Z,3.7
2018-05-23T01:30:33.082Z,4.4
2018-05-23T01:31:35.526Z,4.7
2018-05-23T01:32:37.140Z,3.3
2018-05-23T01:33:38.764Z,4.3
2018-05-23T01:34:40.377Z,3.4
2018-05-23T01:35:41.995Z,3.9
2018-05-23T01:36:43.614Z,4.2
2018-05-23T01:37:45.236Z,4.1
2018-05-23T01:38:46.846Z,3.3
2018-05-23T01:39:48.470Z,3.4
2018-05-23T01:40:50.081Z,3.3
2018-05-23T01:41:51.698Z,3.1
2018-05-23T01:42:53.314Z,3.0
2018-05-23T01:43:54.934Z,3.9
2018-05-23T01:44:56.545Z,3.2
2018-05-23T01:45:58.164Z,4.2
2018-05-23T01:46:59.775Z,4.2
2018-05-23T01:48:01.391Z,3.8
2018-05-23T01:49:03.012Z,3.3
2018-05-23T01:50:04.628Z,3.8
2018-05-23T01:51:06.245Z,3.1
2018-05-23T01:52:07.864Z,3.5
2018-05-23T01:53:09.483Z,3.5
2018-05-23T01:54:11.094Z,3.3
2018-05-23T01:55:12.711Z,3.8
2018-05-23T01:56:14.331Z,3.1
2018-05-23T01:57:15.960Z,3.7
2018-05-23T01:58:17.568Z,3.9
2018-05-23T01:59:19.184Z,3.5
2018-05-23T02:00:20.796Z,3.2
2018-05-23T02:01:22.426Z,3.4
2018-05-23T02:02:24.037Z,3.5
2018-05-23T02:03:25.652Z,3.9
2018-05-23T02:04:27.269Z,3.4
2018-05-23T02:05:28.886Z,3.3
2018-05-23T02:06:30.498Z,3.7
2018-05-23T02:07:32.116Z,3.9
2018-05-23T02:08:33.735Z,3.6
2018-05-23T02:09:35.351Z,3.5
2018-05-23T02:10:36.964Z,3.9
2018-05-23T02:11:38.587Z,2.8
2018-05-23T02:12:40.203Z,4.4
2018-05-23T02:13:41.821Z,3.8
2018-05-23T02:14:43.442Z,3.1
2018-05-23T02:15:45.058Z,3.7
2018-05-23T02:16:46.673Z,3.8
2018-05-23T02:17:48.294Z,3.2
2018-05-23T02:18:49.906Z,4.5
2018-05-23T02:19:51.525Z,3.9
2018-05-23T02:20:53.139Z,4.2
2018-05-23T02:21:54.762Z,3.8
2018-05-23T02:22:56.379Z,3.8
2018-05-23T02:23:57.993Z,4.1
2018-05-23T02:24:59.617Z,3.9
2018-05-23T02:26:01.228Z,3.4
2018-05-23T02:27:02.849Z,3.5
2018-05-23T02:28:04.462Z,4.5
2018-05-23T02:29:06.082Z,4.3
2018-05-23T02:30:07.701Z,5.1
2018-05-23T02:31:09.313Z,4.5
2018-05-23T02:32:10.930Z,4.0
2018-05-23T02:33:12.547Z,4.5
2018-05-23T02:34:14.165Z,3.4
2018-05-23T02:35:15.779Z,3.7
2018-05-23T02:36:17.400Z,3.7
2018-05-23T02:37:19.019Z,3.8
2018-05-23T02:38:20.630Z,2.5
2018-05-23T02:39:22.251Z,3.2
2018-05-23T02:40:23.866Z,2.9
2018-05-23T02:41:25.480Z,3.1
2018-05-23T02:42:27.098Z,3.9
2018-05-23T02:43:28.717Z,3.0
2018-05-23T02:44:30.331Z,3.2
2018-05-23T02:45:31.952Z,3.1
2018-05-23T02:46:33.568Z,3.6
2018-05-23T02:47:35.188Z,3.5
2018-05-23T02:48:36.807Z,3.2
2018-05-23T02:49:38.427Z,2.8
2018-05-23T02:50:40.039Z,3.3
2018-05-23T02:51:41.650Z,3.1
2018-05-23T02:52:43.273Z,3.1
2018-05-23T02:53:44.891Z,3.2
2018-05-23T02:54:46.508Z,3.1
2018-05-23T02:55:48.128Z,3.4
2018-05-23T02:56:49.740Z,2.7
2018-05-23T02:57:51.354Z,3.6
2018-05-23T02:58:52.973Z,3.1
2018-05-23T02:59:54.596Z,3.6
2018-05-23T03:00:56.205Z,3.4
2018-05-23T03:01:57.827Z,3.0
2018-05-23T03:02:59.476Z,3.0
2018-05-23T03:04:01.651Z,3.2
2018-05-23T03:05:03.281Z,3.0
2018-05-23T03:06:05.439Z,3.0
2018-05-23T03:07:07.061Z,3.2
2018-05-23T03:08:08.683Z,4.1
2018-05-23T03:09:10.297Z,3.5
2018-05-23T03:10:11.917Z,2.7
2018-05-23T03:11:13.531Z,3.0
2018-05-23T03:12:15.143Z,2.5
2018-05-23T03:13:16.765Z,3.5
2018-05-23T03:14:18.376Z,3.4
2018-05-23T03:15:19.999Z,2.9
2018-05-23T03:16:21.617Z,3.0
2018-05-23T03:17:23.234Z,2.4
2018-05-23T03:18:24.851Z,2.7
2018-05-23T03:19:26.470Z,3.3
2018-05-23T03:20:28.091Z,3.0
2018-05-23T03:21:29.711Z,3.0
2018-05-23T03:22:31.331Z,3.2
2018-05-23T03:23:32.947Z,3.0
2018-05-23T03:24:34.567Z,2.7
2018-05-23T03:25:36.180Z,3.3
2018-05-23T03:26:37.801Z,2.9
2018-05-23T03:27:39.415Z,2.6
2018-05-23T03:28:41.034Z,3.4
2018-05-23T03:29:42.655Z,2.7
2018-05-23T03:30:44.269Z,3.0
2018-05-23T03:31:45.891Z,3.1
2018-05-23T03:32:47.502Z,2.6
2018-05-23T03:33:49.122Z,2.7
2018-05-23T03:34:50.743Z,3.0
2018-05-23T03:35:52.361Z,2.5
2018-05-23T03:36:53.978Z,3.0
2018-05-23T03:37:55.599Z,2.9
2018-05-23T03:38:57.220Z,3.1
2018-05-23T03:39:58.836Z,2.9
2018-05-23T03:41:00.463Z,3.1
2018-05-23T03:42:02.080Z,3.2
2018-05-23T03:43:03.700Z,3.2
2018-05-23T03:44:05.322Z,3.7
2018-05-23T03:45:06.937Z,4.1
2018-05-23T03:46:08.557Z,3.7
2018-05-23T03:47:10.180Z,3.3
2018-05-23T03:48:11.796Z,3.5
2018-05-23T03:49:13.415Z,3.7
2018-05-23T03:50:15.036Z,3.4
2018-05-23T03:51:16.657Z,3.8
2018-05-23T03:52:18.277Z,3.2
2018-05-23T03:53:19.898Z,3.8
2018-05-23T03:54:21.517Z,3.5
2018-05-23T03:55:23.204Z,3.7
2018-05-23T03:56:24.755Z,2.9
2018-05-23T03:57:26.371Z,3.7
2018-05-23T03:58:27.996Z,3.4
2018-05-23T03:59:29.620Z,3.9
2018-05-23T04:00:31.236Z,3.6
2018-05-23T04:01:32.860Z,3.3
2018-05-23T04:02:34.477Z,3.6
2018-05-23T04:03:36.099Z,3.7
2018-05-23T04:04:37.722Z,3.8
2018-05-23T04:05:39.343Z,3.1
2018-05-23T04:06:40.965Z,3.8
2018-05-23T04:07:42.586Z,3.5
2018-05-23T04:08:44.200Z,4.1
2018-05-23T04:09:45.906Z,3.5
2018-05-23T04:10:47.445Z,4.1
2018-05-23T04:11:49.061Z,3.5
2018-05-23T04:12:50.684Z,5.0
2018-05-23T04:13:52.303Z,3.3
2018-05-23T04:14:53.924Z,4.1
2018-05-23T04:15:55.546Z,4.0
2018-05-23T04:16:57.160Z,3.5
2018-05-23T04:17:58.784Z,3.3
2018-05-23T04:19:00.399Z,4.0
2018-05-23T04:20:02.020Z,3.0
2018-05-23T04:21:03.645Z,3.5
2018-05-23T04:22:05.259Z,3.8
2018-05-23T04:23:06.883Z,3.8
2018-05-23T04:24:08.504Z,3.5
2018-05-23T04:25:10.125Z,4.2
2018-05-23T04:26:11.743Z,3.4
2018-05-23T04:27:13.362Z,4.0
2018-05-23T04:28:14.981Z,3.2
2018-05-23T04:29:16.601Z,3.2
2018-05-23T04:30:18.217Z,3.6
2018-05-23T04:31:19.845Z,4.0
2018-05-23T04:32:21.460Z,3.4
2018-05-23T04:33:23.080Z,3.4
2018-05-23T04:34:24.706Z,3.9
2018-05-23T04:35:26.323Z,4.6
2018-05-23T04:36:27.942Z,3.4
2018-05-23T04:37:29.564Z,3.6
2018-05-23T04:38:31.182Z,3.9
2018-05-23T04:39:32.808Z,4.4
2018-05-23T04:40:34.427Z,4.7
2018-05-23T04:41:36.059Z,5.1
2018-05-23T04:42:37.667Z,3.9
2018-05-23T04:43:39.290Z,4.8
2018-05-23T04:44:40.911Z,4.5
2018-05-23T04:45:42.535Z,3.4
2018-05-23T04:46:44.163Z,4.4
2018-05-23T04:47:45.782Z,4.6
2018-05-23T04:48:47.411Z,4.2
2018-05-23T04:49:49.029Z,4.0
2018-05-23T04:50:50.646Z,4.4
2018-05-23T04:51:52.270Z,4.7
2018-05-23T04:52:53.890Z,3.8
2018-05-23T04:53:55.516Z,4.7
2018-05-23T04:54:57.141Z,4.6
2018-05-23T04:55:58.764Z,4.9
2018-05-23T04:57:00.390Z,4.6
2018-05-23T04:58:02.009Z,4.6
2018-05-23T04:59:03.631Z,4.3
2018-05-23T05:00:05.256Z,4.8
2018-05-23T05:01:06.876Z,3.9
2018-05-23T05:02:08.504Z,4.2
2018-05-23T05:03:10.129Z,5.0
2018-05-23T05:04:11.746Z,4.1
2018-05-23T05:05:13.366Z,4.4
2018-05-23T05:06:14.990Z,5.1
2018-05-23T05:07:16.610Z,3.7
2018-05-23T05:08:18.235Z,4.2
2018-05-23T05:09:19.860Z,3.8
2018-05-23T05:10:21.477Z,3.3
2018-05-23T05:11:23.099Z,3.4
2018-05-23T05:12:24.723Z,4.1
2018-05-23T05:13:26.347Z,3.3
2018-05-23T05:14:27.965Z,4.2
2018-05-23T05:15:29.592Z,4.1
2018-05-23T05:16:31.210Z,4.1
2018-05-23T05:17:32.828Z,4.3
2018-05-23T05:18:34.458Z,3.6
2018-05-23T05:19:36.088Z,4.2
2018-05-23T05:20:37.698Z,3.6
2018-05-23T05:21:39.321Z,3.8
2018-05-23T05:22:40.942Z,5.1
2018-05-23T05:23:42.558Z,4.2
2018-05-23T05:24:44.186Z,4.2
2018-05-23T05:25:45.804Z,4.2
2018-05-23T05:26:47.428Z,3.7
2018-05-23T05:27:49.046Z,4.3
2018-05-23T05:28:50.671Z,4.7
2018-05-23T05:29:52.289Z,3.9
2018-05-23T05:30:53.915Z,4.5
2018-05-23T05:31:55.585Z,4.0
2018-05-23T05:32:57.160Z,4.1
2018-05-23T05:33:58.777Z,4.1
2018-05-23T05:35:00.400Z,3.7
2018-05-23T05:36:02.024Z,4.1
2018-05-23T05:37:03.641Z,4.3
2018-05-23T05:38:05.270Z,4.3
2018-05-23T05:39:06.889Z,4.5
2018-05-23T05:40:08.510Z,4.6
2018-05-23T05:41:10.132Z,4.4
2018-05-23T05:42:11.755Z,4.1
2018-05-23T05:43:13.376Z,4.6
2018-05-23T05:44:14.996Z,4.2
2018-05-23T05:45:16.621Z,4.4
2018-05-23T05:46:18.239Z,4.7
2018-05-23T05:47:19.861Z,4.2
2018-05-23T05:48:21.477Z,4.0
2018-05-23T05:49:23.098Z,4.8
2018-05-23T05:50:24.717Z,4.1
2018-05-23T05:51:26.343Z,4.4
2018-05-23T05:52:27.970Z,4.5
2018-05-23T05:53:29.591Z,3.8
2018-05-23T05:54:31.213Z,4.8
2018-05-23T05:55:32.827Z,4.3
2018-05-23T05:56:34.449Z,4.6
2018-05-23T05:57:36.070Z,4.3
2018-05-23T05:58:37.688Z,4.4
2018-05-23T05:59:39.321Z,5.3
2018-05-23T06:00:40.943Z,4.6
2018-05-23T06:01:42.558Z,3.7
2018-05-23T06:02:44.179Z,4.5
2018-05-23T06:03:45.804Z,4.7
2018-05-23T06:04:47.428Z,5.5
2018-05-23T06:05:49.053Z,5.3
2018-05-23T06:06:50.679Z,5.2
2018-05-23T06:07:52.304Z,5.0
2018-05-23T06:08:53.932Z,4.3
2018-05-23T06:09:55.576Z,5.3
2018-05-23T06:10:57.174Z,3.6
2018-05-23T06:11:58.791Z,4.8
2018-05-23T06:13:00.409Z,4.3
2018-05-23T06:14:02.036Z,5.6
2018-05-23T06:15:03.653Z,3.9
2018-05-23T06:16:05.279Z,4.7
2018-05-23T06:17:06.903Z,5.0
2018-05-23T06:18:08.527Z,4.8
2018-05-23T06:19:10.144Z,4.6
2018-05-23T06:20:11.773Z,4.7
2018-05-23T06:21:14.196Z,4.5
2018-05-23T06:22:15.872Z,5.1
2018-05-23T06:23:17.452Z,4.8
2018-05-23T06:24:19.069Z,5.8
2018-05-23T06:25:20.707Z,4.5
2018-05-23T06:26:22.313Z,5.8
2018-05-23T06:27:23.936Z,5.6
2018-05-23T06:28:25.556Z,5.9
2018-05-23T06:29:27.187Z,6.3
2018-05-23T06:30:28.865Z,5.4
2018-05-23T06:31:30.430Z,6.3
2018-05-23T06:32:32.053Z,6.0
2018-05-23T06:33:33.671Z,5.5
2018-05-23T06:34:35.299Z,5.5
2018-05-23T06:35:36.917Z,5.7
2018-05-23T06:36:38.540Z,5.9
2018-05-23T06:37:40.163Z,5.8
2018-05-23T06:38:41.778Z,5.7
2018-05-23T06:39:43.398Z,6.2
2018-05-23T06:40:45.024Z,6.3
2018-05-23T06:41:46.650Z,5.3
2018-05-23T06:42:48.269Z,6.5
2018-05-23T06:43:49.894Z,5.3
2018-05-23T06:44:51.518Z,7.8
2018-05-23T06:45:53.136Z,5.7
2018-05-23T06:46:54.766Z,6.6
2018-05-23T06:47:56.390Z,6.9
2018-05-23T06:48:58.009Z,5.9
2018-05-23T06:49:59.671Z,5.9
2018-05-23T06:51:01.262Z,5.9
2018-05-23T06:52:02.879Z,5.6
2018-05-23T06:53:04.500Z,6.2
2018-05-23T06:54:06.122Z,5.9
2018-05-23T06:55:07.739Z,5.7
2018-05-23T06:56:10.097Z,6.4
2018-05-23T06:57:11.725Z,6.3
2018-05-23T06:58:13.347Z,6.5
2018-05-23T06:59:14.967Z,6.2
2018-05-23T07:00:16.591Z,6.7
2018-05-23T07:01:18.211Z,6.5
2018-05-23T07:02:19.835Z,7.4
2018-05-23T07:03:21.460Z,6.1
2018-05-23T07:04:23.076Z,6.2
2018-05-23T07:05:24.705Z,6.3
2018-05-23T07:06:26.331Z,6.5
2018-05-23T07:07:27.949Z,6.2
2018-05-23T07:08:29.577Z,7.2
2018-05-23T07:09:31.201Z,6.7
2018-05-23T07:10:32.817Z,6.2
2018-05-23T07:11:34.442Z,6.8
2018-05-23T07:12:36.065Z,5.7
2018-05-23T07:13:37.694Z,7.1
2018-05-23T07:14:39.321Z,6.8
2018-05-23T07:15:40.938Z,7.4
2018-05-23T07:16:42.565Z,6.7
2018-05-23T07:17:44.221Z,6.8
2018-05-23T07:18:45.808Z,6.1
2018-05-23T07:19:47.439Z,5.8
2018-05-23T07:20:49.058Z,6.4
2018-05-23T07:21:50.686Z,6.5
2018-05-23T07:22:52.314Z,6.7
2018-05-23T07:23:53.930Z,6.3
2018-05-23T07:24:55.562Z,6.2
2018-05-23T07:25:57.201Z,6.3
2018-05-23T07:26:58.814Z,5.4
2018-05-23T07:28:00.439Z,6.4
2018-05-23T07:29:02.063Z,5.8
2018-05-23T07:30:03.691Z,6.2
2018-05-23T07:31:05.313Z,6.1
2018-05-23T07:32:07.541Z,6.5
2018-05-23T07:33:09.167Z,6.1
2018-05-23T07:34:10.790Z,6.5
2018-05-23T07:35:12.426Z,6.0
2018-05-23T07:36:14.046Z,6.0
2018-05-23T07:37:15.671Z,5.9
2018-05-23T07:38:17.330Z,4.9
2018-05-23T07:39:18.925Z,5.1
2018-05-23T07:40:20.556Z,4.6
2018-05-23T07:41:22.183Z,4.3
2018-05-23T07:42:23.811Z,4.3
2018-05-23T07:43:25.438Z,5.6
2018-05-23T07:44:27.064Z,4.3
2018-05-23T07:45:28.684Z,5.0
2018-05-23T07:46:30.316Z,4.7
2018-05-23T07:47:31.943Z,5.1
2018-05-23T07:48:33.569Z,5.0
2018-05-23T07:49:35.199Z,4.8
2018-05-23T07:50:36.821Z,4.7
2018-05-23T07:51:38.443Z,4.9
2018-05-23T07:52:40.103Z,5.3
2018-05-23T07:53:41.697Z,3.6
2018-05-23T07:54:43.320Z,4.6
2018-05-23T07:55:44.953Z,4.2
2018-05-23T07:56:46.689Z,5.9
2018-05-23T07:57:48.199Z,5.1
2018-05-23T07:58:49.824Z,5.3
2018-05-23T07:59:51.451Z,4.5
2018-05-23T08:00:53.076Z,4.3
2018-05-23T08:01:54.706Z,5.0
2018-05-23T08:02:56.332Z,5.0
2018-05-23T08:03:57.962Z,4.5
2018-05-23T08:04:59.586Z,5.1
2018-05-23T08:06:01.215Z,4.6
2018-05-23T08:07:02.842Z,5.1
2018-05-23T08:08:04.474Z,4.6
2018-05-23T08:09:06.106Z,4.7
2018-05-23T08:10:07.730Z,5.1
2018-05-23T08:11:09.365Z,5.6
2018-05-23T08:12:10.996Z,4.8
2018-05-23T08:13:12.623Z,4.5
2018-05-23T08:14:14.248Z,4.1
2018-05-23T08:15:15.886Z,4.7
2018-05-23T08:16:17.515Z,3.8
2018-05-23T08:17:19.150Z,5.4
2018-05-23T08:18:20.783Z,4.6
2018-05-23T08:19:22.416Z,5.0
2018-05-23T08:20:24.045Z,4.3
2018-05-23T08:21:25.677Z,4.4
2018-05-23T08:22:27.305Z,4.2
2018-05-23T08:23:28.939Z,4.5
2018-05-23T08:24:30.644Z,5.2
2018-05-23T08:25:32.202Z,5.4
2018-05-23T08:26:33.835Z,4.5
2018-05-23T08:27:35.466Z,4.5
2018-05-23T08:28:37.097Z,4.8
2018-05-23T08:29:38.727Z,5.3
2018-05-23T08:30:40.359Z,4.6
2018-05-23T08:31:41.995Z,5.0
2018-05-23T08:32:43.634Z,5.1
2018-05-23T08:33:45.279Z,4.3
2018-05-23T08:34:46.913Z,4.5
2018-05-23T08:35:48.544Z,4.5
2018-05-23T08:36:50.174Z,4.4
2018-05-23T08:37:51.812Z,4.4
2018-05-23T08:38:53.453Z,4.4
2018-05-23T08:39:55.084Z,4.2
2018-05-23T08:40:56.723Z,4.2
2018-05-23T08:41:58.353Z,3.8
2018-05-23T08:42:59.983Z,4.5
2018-05-23T08:44:01.622Z,4.1
2018-05-23T08:45:03.258Z,4.2
2018-05-23T08:46:04.966Z,4.1
2018-05-23T08:47:06.522Z,4.3
2018-05-23T08:48:08.159Z,3.9
2018-05-23T08:49:09.788Z,5.2
2018-05-23T08:50:11.422Z,4.4
2018-05-23T08:51:13.056Z,3.6
2018-05-23T08:52:14.689Z,4.2
2018-05-23T08:53:16.325Z,4.4
2018-05-23T08:54:17.959Z,4.4
2018-05-23T08:55:19.593Z,4.3
2018-05-23T08:56:21.221Z,4.0
2018-05-23T08:57:22.850Z,4.8
2018-05-23T08:58:24.487Z,3.8
2018-05-23T08:59:26.117Z,4.0
2018-05-23T09:00:27.750Z,3.9
2018-05-23T09:01:29.386Z,4.7
2018-05-23T09:02:31.015Z,4.1
2018-05-23T09:03:32.644Z,3.9
2018-05-23T09:04:34.277Z,3.6
2018-05-23T09:05:35.907Z,4.0
2018-05-23T09:06:37.541Z,4.3
2018-05-23T09:07:39.177Z,4.2
2018-05-23T09:08:40.804Z,4.5
2018-05-23T09:09:42.436Z,4.5
2018-05-23T09:10:44.061Z,3.9
2018-05-23T09:11:45.695Z,3.9
2018-05-23T09:12:47.329Z,3.5
2018-05-23T09:13:48.954Z,4.6
2018-05-23T09:14:50.587Z,4.1
2018-05-23T09:15:52.215Z,4.5
2018-05-23T09:16:53.850Z,3.4
2018-05-23T09:17:55.480Z,3.5
2018-05-23T09:18:57.106Z,4.2
2018-05-23T09:19:58.738Z,4.3
2018-05-23T09:21:00.373Z,3.9
2018-05-23T09:22:01.995Z,4.0
2018-05-23T09:23:03.627Z,4.1
2018-05-23T09:24:05.258Z,4.2
2018-05-23T09:25:06.890Z,3.8
2018-05-23T09:26:08.513Z,4.8
2018-05-23T09:27:10.147Z,3.9
2018-05-23T09:28:11.778Z,3.7
2018-05-23T09:29:13.410Z,3.7
2018-05-23T09:30:15.044Z,3.5
2018-05-23T09:31:16.669Z,3.6
2018-05-23T09:32:18.352Z,3.8
2018-05-23T09:33:19.929Z,3.4
2018-05-23T09:34:21.557Z,3.8
2018-05-23T09:35:23.192Z,3.7
2018-05-23T09:36:24.816Z,3.4
2018-05-23T09:37:26.450Z,3.5
2018-05-23T09:38:28.084Z,3.1
2018-05-23T09:39:29.717Z,3.8
2018-05-23T09:40:31.351Z,3.4
2018-05-23T09:41:32.978Z,3.8
2018-05-23T09:42:34.603Z,3.6
2018-05-23T09:43:36.240Z,3.2
2018-05-23T09:44:37.873Z,3.8
2018-05-23T09:45:39.499Z,3.7
2018-05-23T09:46:41.134Z,2.9
2018-05-23T09:47:42.764Z,3.8
2018-05-23T09:48:44.397Z,3.3
2018-05-23T09:49:46.033Z,3.5
2018-05-23T09:50:47.668Z,3.4
2018-05-23T09:51:49.300Z,3.6
2018-05-23T09:52:50.938Z,3.4
2018-05-23T09:53:52.568Z,3.1
2018-05-23T09:54:54.204Z,3.7
2018-05-23T09:55:55.834Z,3.5
2018-05-23T09:56:57.472Z,2.9
2018-05-23T09:57:59.103Z,2.9
2018-05-23T09:59:00.744Z,3.4
2018-05-23T10:00:02.375Z,3.3
2018-05-23T10:01:04.011Z,3.9
2018-05-23T10:02:05.639Z,4.1
2018-05-23T10:03:07.276Z,3.6
2018-05-23T10:04:08.909Z,4.0
2018-05-23T10:05:10.537Z,3.8
2018-05-23T10:06:12.176Z,4.0
2018-05-23T10:07:13.801Z,4.4
2018-05-23T10:08:15.437Z,4.3
2018-05-23T10:09:17.070Z,3.7
2018-05-23T10:10:18.701Z,3.4
2018-05-23T10:11:20.334Z,3.5
2018-05-23T10:12:21.966Z,3.7
2018-05-23T10:13:23.601Z,3.2
2018-05-23T10:14:25.223Z,3.5
2018-05-23T10:15:26.851Z,3.9
2018-05-23T10:16:28.484Z,3.8
2018-05-23T10:17:30.120Z,3.5
2018-05-23T10:18:31.744Z,3.8
2018-05-23T10:19:33.378Z,3.7
2018-05-23T10:20:35.005Z,3.8
2018-05-23T10:21:36.632Z,3.4
2018-05-23T10:22:38.265Z,3.1
2018-05-23T10:23:39.892Z,3.6
2018-05-23T10:24:41.525Z,3.7
2018-05-23T10:25:43.155Z,3.9
2018-05-23T10:26:44.787Z,3.8
2018-05-23T10:27:46.423Z,3.6
2018-05-23T10:28:48.049Z,3.4
2018-05-23T10:29:49.678Z,3.3
2018-05-23T10:30:51.305Z,4.4
2018-05-23T10:31:52.932Z,3.8
2018-05-23T10:32:54.559Z,3.3
2018-05-23T10:33:56.185Z,3.4
2018-05-23T10:34:57.820Z,4.0
2018-05-23T10:35:59.450Z,3.8
2018-05-23T10:37:01.079Z,3.8
2018-05-23T10:38:02.707Z,3.6
2018-05-23T10:39:04.333Z,3.8
2018-05-23T10:40:05.965Z,3.6
2018-05-23T10:41:07.591Z,3.5
2018-05-23T10:42:09.219Z,3.8
2018-05-23T10:43:10.844Z,3.8
2018-05-23T10:44:12.472Z,3.8
2018-05-23T10:45:14.096Z,3.3
2018-05-23T10:46:15.753Z,3.6
2018-05-23T10:47:17.348Z,3.6
2018-05-23T10:48:18.983Z,3.1
2018-05-23T10:49:20.607Z,3.4
2018-05-23T10:50:22.234Z,3.0
2018-05-23T10:51:23.856Z,3.0
2018-05-23T10:52:25.477Z,2.5
2018-05-23T10:53:27.108Z,3.3
2018-05-23T10:54:28.730Z,3.7
2018-05-23T10:55:30.361Z,3.4
2018-05-23T10:56:31.986Z,3.3
2018-05-23T10:57:33.610Z,3.3
2018-05-23T10:58:35.239Z,2.7
2018-05-23T10:59:36.868Z,2.7
2018-05-23T11:00:38.496Z,3.7
2018-05-23T11:01:40.124Z,3.0
2018-05-23T11:02:41.747Z,3.1
2018-05-23T11:03:43.377Z,3.2
2018-05-23T11:04:45.003Z,3.0
2018-05-23T11:05:46.725Z,2.8
2018-05-23T11:06:48.254Z,3.3
2018-05-23T11:07:49.878Z,2.9
2018-05-23T11:08:51.528Z,2.6
2018-05-23T11:09:53.134Z,2.9
2018-05-23T11:10:54.758Z,2.9
2018-05-23T11:11:56.384Z,2.6
2018-05-23T11:12:58.009Z,3.2
2018-05-23T11:13:59.633Z,3.0
2018-05-23T11:15:01.364Z,3.1
2018-05-23T11:16:02.892Z,2.4
2018-05-23T11:17:04.506Z,2.7
2018-05-23T11:18:06.140Z,3.1
2018-05-23T11:19:07.764Z,2.6
2018-05-23T11:20:09.390Z,2.8
2018-05-23T11:21:11.014Z,2.9
2018-05-23T11:22:12.640Z,2.7
2018-05-23T11:23:14.269Z,3.0
2018-05-23T11:24:15.890Z,2.6
2018-05-23T11:25:17.516Z,2.4
2018-05-23T11:26:19.138Z,2.6
2018-05-23T11:27:20.761Z,2.4
2018-05-23T11:28:22.389Z,2.4
2018-05-23T11:29:24.010Z,2.8
2018-05-23T11:30:25.639Z,2.9
2018-05-23T11:31:27.263Z,3.1
2018-05-23T11:32:28.898Z,2.4
2018-05-23T11:33:30.515Z,2.6
2018-05-23T11:34:32.137Z,2.8
2018-05-23T11:35:33.765Z,3.0
2018-05-23T11:36:35.395Z,3.2
2018-05-23T11:37:37.020Z,2.9
2018-05-23T11:38:38.643Z,2.8
2018-05-23T11:39:40.270Z,3.1
2018-05-23T11:40:41.898Z,3.1
2018-05-23T11:41:43.520Z,3.7
2018-05-23T11:42:45.149Z,2.6
2018-05-23T11:43:46.780Z,3.3
2018-05-23T11:44:48.399Z,3.7
2018-05-23T11:45:50.026Z,3.4
2018-05-23T11:46:51.657Z,4.0
2018-05-23T11:47:53.276Z,3.4
2018-05-23T11:48:54.903Z,3.5
2018-05-23T11:49:56.525Z,3.5
2018-05-23T11:50:58.149Z,3.3
2018-05-23T11:51:59.779Z,3.7
2018-05-23T11:53:01.407Z,3.1
2018-05-23T11:54:03.041Z,2.8
2018-05-23T11:55:04.662Z,2.7
2018-05-23T11:56:06.293Z,3.6
2018-05-23T11:57:07.915Z,3.0
2018-05-23T11:58:09.541Z,4.0
2018-05-23T11:59:11.171Z,3.0
2018-05-23T12:00:12.796Z,3.3
2018-05-23T12:01:14.431Z,3.6
2018-05-23T12:02:16.055Z,3.8
2018-05-23T12:03:17.679Z,2.8
2018-05-23T12:04:19.306Z,2.7
2018-05-23T12:05:20.925Z,3.4
2018-05-23T12:06:22.557Z,3.9
2018-05-23T12:07:24.190Z,3.1
2018-05-23T12:08:25.829Z,3.8
2018-05-23T12:09:27.442Z,2.8
2018-05-23T12:10:29.077Z,3.5
2018-05-23T12:11:30.694Z,2.7
2018-05-23T12:12:32.324Z,3.1
2018-05-23T12:13:33.950Z,3.0
2018-05-23T12:14:35.581Z,2.8
2018-05-23T12:15:37.212Z,2.4
2018-05-23T12:16:38.834Z,2.3
2018-05-23T12:17:40.464Z,2.8
2018-05-23T12:18:42.089Z,2.7
2018-05-23T12:19:43.723Z,2.5
2018-05-23T12:20:45.345Z,2.8
2018-05-23T12:21:46.973Z,2.8
2018-05-23T12:22:48.599Z,3.1
2018-05-23T12:23:50.229Z,2.7
2018-05-23T12:24:51.848Z,2.6
2018-05-23T12:25:53.479Z,2.9
2018-05-23T12:26:55.104Z,2.7
2018-05-23T12:27:56.809Z,3.0
2018-05-23T12:28:58.366Z,2.7
2018-05-23T12:29:59.993Z,2.8
2018-05-23T12:31:01.626Z,2.9
2018-05-23T12:32:03.243Z,3.7
2018-05-23T12:33:04.868Z,3.1
2018-05-23T12:34:06.501Z,3.4
2018-05-23T12:35:08.128Z,3.8
2018-05-23T12:36:09.754Z,3.1
2018-05-23T12:37:11.389Z,3.1
2018-05-23T12:38:13.012Z,3.6
2018-05-23T12:39:14.642Z,4.4
2018-05-23T12:40:16.264Z,3.4
2018-05-23T12:41:17.897Z,3.8
2018-05-23T12:42:19.520Z,3.4
2018-05-23T12:43:21.150Z,4.0
2018-05-23T12:44:22.779Z,3.8
2018-05-23T12:45:24.411Z,3.6
2018-05-23T12:46:26.029Z,4.0
2018-05-23T12:47:27.676Z,3.8
2018-05-23T12:48:29.307Z,3.6
2018-05-23T12:49:30.935Z,3.6
2018-05-23T12:50:32.567Z,3.6
2018-05-23T12:51:34.193Z,3.8
2018-05-23T12:52:35.820Z,3.4
2018-05-23T12:53:37.450Z,3.3
2018-05-23T12:54:39.075Z,3.9
2018-05-23T12:55:40.710Z,2.8
2018-05-23T12:56:42.334Z,3.1
2018-05-23T12:57:43.964Z,3.4
2018-05-23T12:58:45.590Z,3.7
2018-05-23T12:59:47.232Z,3.8
2018-05-23T13:00:48.847Z,3.4
2018-05-23T13:01:50.476Z,3.7
2018-05-23T13:02:52.099Z,3.7
2018-05-23T13:03:53.729Z,3.9
2018-05-23T13:04:55.361Z,3.6
2018-05-23T13:05:56.988Z,3.6
2018-05-23T13:06:58.618Z,3.6
2018-05-23T13:08:00.249Z,5.3
2018-05-23T13:09:01.876Z,3.9
2018-05-23T13:10:03.506Z,3.9
2018-05-23T13:11:05.138Z,3.5
2018-05-23T13:12:06.767Z,3.8
2018-05-23T13:13:08.394Z,3.8
2018-05-23T13:14:10.021Z,3.5
2018-05-23T13:15:11.652Z,3.3
2018-05-23T13:16:13.276Z,3.9
2018-05-23T13:17:14.913Z,3.5
2018-05-23T13:18:16.535Z,3.4
2018-05-23T13:19:18.173Z,4.0
2018-05-23T13:20:19.809Z,4.3
2018-05-23T13:21:21.433Z,3.7
2018-05-23T13:22:23.066Z,3.8
2018-05-23T13:23:24.690Z,3.8
2018-05-23T13:24:26.319Z,3.8
2018-05-23T13:25:27.951Z,4.2
2018-05-23T13:26:29.581Z,4.2
2018-05-23T13:27:31.206Z,3.3
2018-05-23T13:28:32.838Z,4.2
2018-05-23T13:29:34.469Z,4.3
2018-05-23T13:30:36.100Z,3.6
2018-05-23T13:31:37.745Z,4.2
2018-05-23T13:32:39.374Z,4.1
2018-05-23T13:33:41.006Z,4.0
2018-05-23T13:34:42.643Z,4.1
2018-05-23T13:35:44.265Z,3.3
2018-05-23T13:36:45.897Z,4.4
2018-05-23T13:37:47.526Z,4.3
2018-05-23T13:38:49.220Z,3.8
2018-05-23T13:39:50.795Z,3.6
2018-05-23T13:40:52.426Z,3.8
2018-05-23T13:41:54.055Z,3.0
2018-05-23T13:42:55.685Z,3.3
2018-05-23T13:43:57.320Z,4.2
2018-05-23T13:44:58.948Z,3.8
2018-05-23T13:46:00.584Z,3.6
2018-05-23T13:47:02.222Z,3.6
2018-05-23T13:48:03.848Z,3.8
2018-05-23T13:49:05.484Z,3.8
2018-05-23T13:50:07.111Z,3.4
2018-05-23T13:51:08.746Z,3.7
2018-05-23T13:52:10.375Z,3.9
2018-05-23T13:53:12.010Z,3.3
2018-05-23T13:54:13.649Z,4.1
2018-05-23T13:55:15.327Z,3.2
2018-05-23T13:56:16.913Z,3.0
2018-05-23T13:57:18.551Z,4.0
2018-05-23T13:58:20.180Z,3.5
2018-05-23T13:59:21.811Z,4.2
2018-05-23T14:00:23.446Z,3.7
2018-05-23T14:01:25.074Z,3.5
2018-05-23T14:02:26.713Z,4.0
2018-05-23T14:03:28.354Z,3.8
2018-05-23T14:04:29.978Z,3.8
2018-05-23T14:05:31.616Z,3.9
2018-05-23T14:06:33.244Z,3.5
2018-05-23T14:07:34.881Z,3.7
2018-05-23T14:08:36.513Z,4.3